Time;durP1;ratioP1;P1;durP2;ratioP2;P2;SDS_P1;SDS_P2;PMS_P1;PMS_P2;Temp;Humidity;BMP_temperature;BMP_pressure;BME280_temperature;BME280_humidity;BME280_pressure;Samples;Min_cycle;Max_cycle;Signal;HPM_P1;HPM_P2
2023/02/23 00:00:27;;;;;;;;;23.50;17.00;;;;;10.11;71.64;100603.69;5094656;27;45828;-76
2023/02/23 00:02:54;;;;;;;;;20.25;15.50;;;;;10.20;71.88;100612.75;5094640;27;46001;-76
2023/02/23 00:05:21;;;;;;;;;20.50;18.00;;;;;10.19;71.63;100614.53;5094330;27;47428;-76
2023/02/23 00:07:46;;;;;;;;;16.75;15.75;;;;;10.18;71.71;100606.75;5094367;27;46647;-75
2023/02/23 00:10:13;;;;;;;;;18.75;15.75;;;;;10.24;71.45;100614.19;5094350;27;45617;-74
2023/02/23 00:12:40;;;;;;;;;21.75;16.50;;;;;10.22;71.49;100600.38;5094198;27;45647;-76
2023/02/23 00:15:06;;;;;;;;;21.00;17.50;;;;;10.23;71.40;100607.28;5094477;27;47439;-74
2023/02/23 00:17:32;;;;;;;;;23.25;20.00;;;;;10.25;71.53;100608.03;5094256;27;47891;-75
2023/02/23 00:19:58;;;;;;;;;26.00;21.75;;;;;10.22;71.64;100611.69;5094471;27;45622;-76
2023/02/23 00:22:24;;;;;;;;;8.75;4.50;;;;;10.20;71.57;100607.50;5094460;27;45584;-75
2023/02/23 00:24:49;;;;;;;;;22.75;19.00;;;;;10.19;71.58;100608.44;5094277;27;46973;-76
2023/02/23 00:27:19;;;;;;;;;18.25;18.25;;;;;10.18;71.56;100612.00;5094252;27;45979;-77
2023/02/23 00:29:48;;;;;;;;;22.25;20.25;;;;;10.17;71.46;100610.31;5094449;27;45928;-75
2023/02/23 00:32:18;;;;;;;;;22.00;20.75;;;;;10.13;71.53;100608.84;5094647;27;45574;-78
2023/02/23 00:34:44;;;;;;;;;20.50;20.00;;;;;10.16;71.73;100606.00;5094068;27;47834;-74
2023/02/23 00:40:31;;;;;;;;;24.75;20.00;;;;;10.03;71.65;100595.56;5094071;27;45556;-77
2023/02/23 00:42:57;;;;;;;;;24.25;21.50;;;;;10.02;71.59;100601.72;5094403;27;45843;-75
2023/02/23 00:45:22;;;;;;;;;28.75;22.50;;;;;10.04;71.70;100621.59;5093897;27;47064;-76
2023/02/23 00:47:47;;;;;;;;;27.00;22.00;;;;;10.02;71.85;100618.25;5094207;27;46364;-75
2023/02/23 00:50:16;;;;;;;;;22.50;20.00;;;;;10.01;71.77;100621.81;5093939;27;45634;-75
2023/02/23 00:56:05;;;;;;;;;27.50;24.75;;;;;10.00;71.56;100609.66;5094731;27;45741;-77
2023/02/23 00:58:31;;;;;;;;;22.50;19.00;;;;;9.96;71.61;100610.84;5097586;27;46154;-77
2023/02/23 01:01:00;;;;;;;;;24.50;19.25;;;;;9.97;71.60;100617.75;5097388;27;45816;-75
2023/02/23 01:03:26;;;;;;;;;25.25;21.75;;;;;9.91;71.76;100626.00;5097588;27;45510;-76
2023/02/23 01:05:54;;;;;;;;;23.00;21.75;;;;;9.89;71.63;100613.97;5097521;27;45834;-75
2023/02/23 01:08:21;;;;;;;;;23.00;20.50;;;;;9.90;71.70;100626.09;5097418;27;45888;-76
2023/02/23 01:10:51;;;;;;;;;22.00;19.25;;;;;9.84;71.83;100610.81;5096033;27;45839;-77
2023/02/23 01:13:19;;;;;;;;;22.50;20.00;;;;;9.80;72.06;100602.34;5097896;27;45675;-77
2023/02/23 01:15:46;;;;;;;;;19.00;15.50;;;;;9.85;71.87;100615.94;5097099;27;47252;-79
2023/02/23 01:18:12;;;;;;;;;22.75;21.50;;;;;9.79;71.87;100626.00;5097100;27;47125;-76
2023/02/23 01:20:40;;;;;;;;;21.50;17.75;;;;;9.76;71.95;100631.44;5097213;27;45658;-77
2023/02/23 01:26:30;;;;;;;;;17.25;16.00;;;;;9.78;72.18;100619.91;5096897;27;45548;-77
2023/02/23 01:28:57;;;;;;;;;19.50;14.75;;;;;9.78;71.98;100627.75;5097250;27;47275;-77
2023/02/23 01:31:24;;;;;;;;;19.75;16.75;;;;;9.78;71.98;100611.22;5097256;27;45750;-75
2023/02/23 01:33:58;;;;;;;;;20.50;16.50;;;;;9.74;71.79;100612.38;5097220;27;45948;-75
2023/02/23 01:36:30;;;;;;;;;25.25;20.00;;;;;9.74;71.90;100623.69;5096493;27;46411;-79
2023/02/23 01:38:58;;;;;;;;;14.25;10.75;;;;;9.73;71.97;100623.78;5096952;27;45577;-78
2023/02/23 01:41:25;;;;;;;;;19.50;17.25;;;;;9.65;72.30;100608.63;5096693;27;45699;-77
2023/02/23 01:44:14;;;;;;;;;23.75;18.75;;;;;9.69;71.83;100616.16;5096955;27;45804;-77
2023/02/23 01:46:42;;;;;;;;;16.50;15.00;;;;;9.71;71.76;100615.22;5074227;28;46431;-76
2023/02/23 01:49:16;;;;;;;;;22.75;19.00;;;;;9.71;71.78;100625.69;5074243;28;47345;-75
2023/02/23 01:51:48;;;;;;;;;19.00;16.00;;;;;9.71;71.90;100623.91;5074369;28;45932;-77
2023/02/23 01:54:49;;;;;;;;;18.25;16.75;;;;;9.74;71.77;100617.63;5074473;28;45971;-77
2023/02/23 01:57:16;;;;;;;;;16.75;15.00;;;;;9.70;71.83;100617.00;5072213;28;46300;-76
2023/02/23 01:59:45;;;;;;;;;15.50;14.00;;;;;9.72;71.37;100612.47;5073811;28;46374;-76
2023/02/23 02:02:12;;;;;;;;;21.75;19.25;;;;;9.77;71.78;100614.81;5073670;28;45958;-75
2023/02/23 02:04:45;;;;;;;;;16.25;14.75;;;;;9.77;71.54;100610.38;5074279;28;45781;-74
2023/02/23 02:07:21;;;;;;;;;16.50;14.50;;;;;9.79;71.57;100615.53;5073246;28;46489;-76
2023/02/23 02:12:45;;;;;;;;;15.75;14.50;;;;;9.73;71.33;100603.69;5058160;28;45606;-76
2023/02/23 02:15:18;;;;;;;;;21.25;17.25;;;;;9.67;71.64;100594.47;5074062;28;45714;-77
2023/02/23 02:18:07;;;;;;;;;17.50;15.25;;;;;9.75;71.45;100608.84;5073786;28;46602;-77
2023/02/23 02:21:28;;;;;;;;;17.50;14.00;;;;;9.73;71.42;100610.72;5073213;28;46321;-77
2023/02/23 02:24:15;;;;;;;;;21.00;19.25;;;;;9.72;71.20;100611.66;5057081;28;45975;-77
2023/02/23 02:27:00;;;;;;;;;18.75;17.00;;;;;9.72;71.37;100602.03;5073539;28;45712;-76
2023/02/23 02:29:57;;;;;;;;;13.00;7.75;;;;;9.69;70.94;100610.09;5073798;28;47414;-76
2023/02/23 02:33:06;;;;;;;;;18.00;13.75;;;;;9.61;71.14;100599.28;5056530;28;46106;-76
2023/02/23 02:35:52;;;;;;;;;20.50;14.50;;;;;9.49;71.29;100587.06;5073645;28;45906;-78
2023/02/23 02:38:33;;;;;;;;;18.25;15.00;;;;;9.55;71.15;100623.25;5073570;28;45781;-76
2023/02/23 02:41:10;;;;;;;;;12.25;12.00;;;;;9.51;71.19;100627.00;5073264;28;45683;-76
2023/02/23 02:44:00;;;;;;;;;17.25;15.25;;;;;9.43;71.26;100616.22;5073607;28;45537;-76
2023/02/23 02:46:31;;;;;;;;;16.25;13.75;;;;;9.49;71.15;100619.28;5073704;28;45550;-77
2023/02/23 02:49:16;;;;;;;;;22.25;16.25;;;;;9.44;71.29;100607.44;5073828;28;45757;-75
2023/02/23 02:51:44;;;;;;;;;18.25;15.00;;;;;9.47;71.41;100612.47;5073110;28;46467;-76
2023/02/23 02:54:24;;;;;;;;;19.00;15.50;;;;;9.41;71.36;100605.84;5072893;28;46368;-75
2023/02/23 02:56:53;;;;;;;;;16.75;14.25;;;;;9.42;71.12;100609.31;5073348;28;45660;-76
2023/02/23 04:18:14;;;;;;;;;20.00;15.50;;;;;9.29;70.42;100609.28;5094448;27;45587;-77
2023/02/23 04:20:39;;;;;;;;;26.25;16.00;;;;;9.24;70.43;100612.19;5094784;27;45564;-75
2023/02/23 04:23:04;;;;;;;;;21.00;18.00;;;;;9.28;70.14;100623.31;5094520;27;46418;-76
2023/02/23 04:25:30;;;;;;;;;18.25;16.50;;;;;9.27;70.25;100624.25;5094525;27;46299;-77
2023/02/23 04:27:56;;;;;;;;;16.25;15.75;;;;;9.26;70.29;100627.78;5094250;27;45623;-78
2023/02/23 04:30:24;;;;;;;;;23.75;19.00;;;;;9.26;70.11;100622.56;5094869;27;45493;-75
2023/02/23 04:32:51;;;;;;;;;23.25;18.75;;;;;9.26;70.16;100618.16;5098091;27;47248;-77
2023/02/23 04:35:16;;;;;;;;;23.25;18.75;;;;;9.25;69.94;100626.94;5097733;27;46382;-74
2023/02/23 04:37:42;;;;;;;;;23.00;20.25;;;;;9.24;70.11;100622.66;5098257;27;45766;-77
2023/02/23 04:40:09;;;;;;;;;23.50;20.75;;;;;9.20;70.06;100612.50;5096540;27;45717;-76
2023/02/23 04:42:35;;;;;;;;;20.75;19.75;;;;;9.24;70.08;100613.97;5098117;27;46410;-78
2023/02/23 04:45:00;;;;;;;;;21.75;21.00;;;;;9.20;70.15;100617.72;5097702;27;46162;-75
2023/02/23 04:47:26;;;;;;;;;22.50;18.75;;;;;9.24;70.26;100620.03;5097877;27;45617;-76
2023/02/23 04:49:52;;;;;;;;;19.25;15.25;;;;;9.15;70.08;100604.97;5097787;27;45813;-77
2023/02/23 04:52:18;;;;;;;;;25.00;21.50;;;;;9.23;70.06;100614.94;5097863;27;45567;-75
2023/02/23 04:54:43;;;;;;;;;25.25;23.50;;;;;9.22;70.03;100637.63;5097401;27;49118;-75
2023/02/23 04:57:09;;;;;;;;;18.75;17.25;;;;;9.19;69.94;100636.94;5097821;27;45738;-74
2023/02/23 04:59:35;;;;;;;;;19.75;17.75;;;;;9.12;70.17;100633.88;5097874;27;45751;-76
2023/02/23 05:02:01;;;;;;;;;19.75;16.75;;;;;9.17;70.00;100644.06;5097095;27;45600;-76
2023/02/23 05:04:27;;;;;;;;;20.75;16.50;;;;;9.17;70.38;100657.16;5097223;27;46385;-75
2023/02/23 05:06:53;;;;;;;;;19.50;16.25;;;;;9.04;70.12;100641.41;5097398;27;45652;-76
2023/02/23 05:09:19;;;;;;;;;19.00;16.00;;;;;9.08;70.30;100652.47;5097577;27;45583;-76
2023/02/23 05:11:45;;;;;;;;;16.25;15.50;;;;;9.04;70.23;100662.31;5097367;27;46109;-77
2023/02/23 05:14:11;;;;;;;;;21.00;18.75;;;;;9.10;70.25;100661.91;5097531;27;45644;-75
2023/02/23 05:16:37;;;;;;;;;20.75;17.25;;;;;9.12;70.15;100657.41;5113152;27;45556;-73
2023/02/23 05:19:02;;;;;;;;;19.50;16.50;;;;;9.12;70.18;100661.81;5097509;27;45854;-75
2023/02/23 05:21:28;;;;;;;;;25.75;16.25;;;;;9.10;70.17;100667.16;5096893;27;47432;-77
2023/02/23 05:23:53;;;;;;;;;20.25;15.75;;;;;9.08;70.31;100663.78;5097263;27;46421;-76
2023/02/23 05:29:40;;;;;;;;;23.00;19.00;;;;;8.99;70.05;100666.16;5097313;27;45739;-75
2023/02/23 05:32:06;;;;;;;;;22.50;18.75;;;;;8.97;70.13;100673.22;5097037;27;47228;-74
2023/02/23 05:34:31;;;;;;;;;18.75;18.00;;;;;8.93;70.34;100672.59;5096809;27;46209;-75
2023/02/23 05:36:57;;;;;;;;;23.75;19.00;;;;;8.93;70.30;100674.38;5097492;27;45607;-74
2023/02/23 05:39:23;;;;;;;;;21.75;19.50;;;;;8.93;70.27;100669.97;5095693;27;45865;-76
2023/02/23 05:41:49;;;;;;;;;19.25;18.25;;;;;8.85;70.22;100669.66;5096341;27;46342;-75
2023/02/23 05:44:14;;;;;;;;;19.50;15.50;;;;;8.89;70.14;100673.72;5095772;27;45595;-76
2023/02/23 05:46:39;;;;;;;;;16.50;15.50;;;;;8.89;70.14;100671.13;5097124;27;45632;-75
2023/02/23 05:49:05;;;;;;;;;25.25;23.75;;;;;8.91;70.22;100674.47;5097267;27;45494;-76
2023/02/23 05:51:32;;;;;;;;;21.50;18.25;;;;;8.93;70.16;100679.59;5095334;27;48403;-75
2023/02/23 05:53:58;;;;;;;;;26.50;24.50;;;;;8.94;70.13;100673.44;5096342;27;47223;-74
2023/02/23 05:59:45;;;;;;;;;22.75;18.25;;;;;8.79;69.93;100654.34;5096746;27;45647;-75
2023/02/23 06:02:11;;;;;;;;;19.00;18.75;;;;;8.93;69.93;100675.22;5096284;27;46494;-75
2023/02/23 06:04:36;;;;;;;;;22.00;18.25;;;;;8.86;70.01;100668.69;5096513;27;47294;-74
2023/02/23 06:07:01;;;;;;;;;22.75;21.00;;;;;8.92;69.80;100668.31;5096654;27;45595;-77
2023/02/23 06:09:27;;;;;;;;;25.75;21.25;;;;;8.94;69.77;100668.22;5096713;27;45982;-76
2023/02/23 06:15:14;;;;;;;;;19.25;18.75;;;;;8.99;69.79;100671.38;5095849;27;46205;-74
2023/02/23 06:17:39;;;;;;;;;18.50;15.50;;;;;8.99;69.60;100674.00;5096447;27;45584;-76
2023/02/23 06:20:06;;;;;;;;;24.00;23.00;;;;;9.00;69.25;100673.91;5096398;27;45568;-76
2023/02/23 06:22:31;;;;;;;;;20.00;18.00;;;;;8.98;69.12;100667.06;5095947;27;46546;-74
2023/02/23 06:24:56;;;;;;;;;21.25;18.50;;;;;8.99;69.03;100667.00;5096041;27;45432;-73
2023/02/23 06:27:22;;;;;;;;;18.25;17.25;;;;;8.97;68.92;100668.00;5096080;27;45633;-74
2023/02/23 06:29:47;;;;;;;;;23.75;20.50;;;;;8.94;69.13;100663.84;5096098;27;45612;-75
2023/02/23 06:32:12;;;;;;;;;19.75;16.50;;;;;8.95;68.94;100662.06;5111522;27;48464;-75
2023/02/23 06:34:38;;;;;;;;;23.25;19.50;;;;;8.96;69.01;100671.59;5095845;27;45659;-75
2023/02/23 06:37:05;;;;;;;;;24.00;20.25;;;;;8.94;69.17;100661.22;5095781;27;45701;-73
2023/02/23 06:39:30;;;;;;;;;23.50;20.75;;;;;8.97;68.84;100673.22;5096281;27;45717;-75
2023/02/23 06:45:20;;;;;;;;;23.25;17.25;;;;;8.95;68.79;100669.91;5095517;27;45859;-73
2023/02/23 06:47:46;;;;;;;;;28.25;23.50;;;;;9.00;68.87;100676.50;5094191;27;45795;-75
2023/02/23 06:50:12;;;;;;;;;24.75;19.75;;;;;9.00;68.98;100675.66;5096044;27;45508;-76
2023/02/23 06:52:38;;;;;;;;;24.00;20.00;;;;;9.01;68.42;100683.41;5096268;27;46734;-75
2023/02/23 06:55:04;;;;;;;;;22.75;19.75;;;;;9.00;68.78;100689.56;5095303;27;46817;-76
2023/02/23 07:00:55;;;;;;;;;24.75;19.75;;;;;8.96;68.79;100685.44;5095931;27;45592;-74
2023/02/23 07:03:21;;;;;;;;;20.75;17.00;;;;;8.97;68.46;100692.38;5097017;27;47494;-74
2023/02/23 07:05:47;;;;;;;;;28.75;24.00;;;;;8.95;68.66;100691.66;5097768;27;46589;-74
2023/02/23 07:08:13;;;;;;;;;31.50;22.75;;;;;8.94;68.64;100689.97;5098106;27;45650;-75
2023/02/23 07:10:40;;;;;;;;;24.25;18.00;;;;;8.96;68.68;100684.66;5096268;27;45591;-74
2023/02/23 07:13:07;;;;;;;;;23.75;19.25;;;;;8.95;68.68;100682.97;5095563;27;46482;-74
2023/02/23 07:15:35;;;;;;;;;28.25;22.00;;;;;8.92;68.79;100696.19;5095463;27;45570;-74
2023/02/23 07:18:00;;;;;;;;;20.75;19.75;;;;;8.91;69.05;100692.75;5097631;27;45655;-74
2023/02/23 07:20:25;;;;;;;;;30.75;22.25;;;;;8.88;68.69;100692.94;5098005;27;45495;-74
2023/02/23 07:22:51;;;;;;;;;27.00;24.00;;;;;8.92;68.77;100704.03;5095460;27;47190;-74
2023/02/23 07:25:17;;;;;;;;;35.75;26.75;;;;;8.93;68.75;100714.41;5095137;27;45599;-74
2023/02/23 07:31:04;;;;;;;;;26.50;23.25;;;;;8.94;68.45;100703.03;5095117;27;45541;-74
2023/02/23 07:33:31;;;;;;;;;25.25;22.00;;;;;9.01;68.73;100709.56;5095505;27;46510;-74
2023/02/23 07:35:56;;;;;;;;;24.50;21.25;;;;;9.03;68.71;100727.72;5095016;27;47082;-75
2023/02/23 07:38:22;;;;;;;;;26.50;21.75;;;;;9.05;68.56;100731.94;5095036;27;45573;-75
2023/02/23 07:47:13;;;;;;;;;21.25;20.25;;;;;9.03;68.50;100744.25;5094686;27;45764;-76
2023/02/23 07:49:38;;;;;;;;;22.50;19.50;;;;;9.04;68.43;100740.69;5094672;27;45613;-76
2023/02/23 07:52:04;;;;;;;;;25.75;22.50;;;;;9.04;68.54;100740.69;5094613;27;45809;-76
2023/02/23 07:54:29;;;;;;;;;22.00;20.25;;;;;9.07;68.43;100743.09;5094912;27;45519;-75
2023/02/23 07:56:55;;;;;;;;;22.50;20.00;;;;;9.08;68.17;100739.56;5093260;27;46986;-75
2023/02/23 07:59:20;;;;;;;;;24.50;20.75;;;;;9.11;68.34;100736.78;5094858;27;45497;-76
2023/02/23 08:01:46;;;;;;;;;23.50;20.75;;;;;9.14;68.17;100743.56;5094759;27;45532;-75
2023/02/23 08:04:11;;;;;;;;;24.00;20.75;;;;;9.13;68.02;100741.88;5094772;27;45488;-74
2023/02/23 08:06:36;;;;;;;;;23.50;20.00;;;;;9.15;68.12;100740.03;5093569;27;46907;-76
2023/02/23 08:09:06;;;;;;;;;20.25;17.00;;;;;9.15;68.20;100737.41;5093265;27;45639;-74
2023/02/23 08:11:31;;;;;;;;;25.00;21.50;;;;;9.16;68.02;100742.56;5094472;27;45682;-75
2023/02/23 08:13:59;;;;;;;;;20.25;17.75;;;;;9.12;68.03;100735.81;5094484;27;46842;-74
2023/02/23 08:16:31;;;;;;;;;24.25;20.25;;;;;9.23;67.89;100743.00;5094384;27;46187;-75
2023/02/23 08:18:57;;;;;;;;;23.00;21.00;;;;;9.27;67.81;100747.09;5094478;27;45779;-74
2023/02/23 08:21:23;;;;;;;;;22.75;19.00;;;;;9.30;68.00;100744.28;5094700;27;45956;-75
2023/02/23 08:23:49;;;;;;;;;23.75;19.00;;;;;9.34;67.75;100748.38;5093070;27;46554;-74
2023/02/23 08:26:14;;;;;;;;;20.25;17.75;;;;;9.34;67.65;100740.53;5093797;27;46576;-74
2023/02/23 08:28:44;;;;;;;;;25.00;22.75;;;;;9.34;67.76;100740.53;5093488;27;45722;-73
2023/02/23 08:31:10;;;;;;;;;23.50;20.25;;;;;9.34;68.03;100737.09;5094186;27;45581;-74
2023/02/23 08:33:37;;;;;;;;;29.00;23.25;;;;;9.38;67.79;100736.81;5093739;27;46658;-75
2023/02/23 08:36:03;;;;;;;;;24.75;21.25;;;;;9.41;67.52;100735.75;5093980;27;46061;-74
2023/02/23 08:38:29;;;;;;;;;23.75;19.50;;;;;9.43;67.79;100741.72;5094247;27;45497;-75
2023/02/23 08:40:54;;;;;;;;;23.25;21.50;;;;;9.45;67.62;100734.59;5093920;27;45634;-75
2023/02/23 08:43:19;;;;;;;;;31.00;24.75;;;;;9.42;67.55;100726.97;5093566;27;46464;-75
2023/02/23 08:45:45;;;;;;;;;26.25;23.25;;;;;9.50;67.66;100732.56;5091520;27;47040;-74
2023/02/23 08:48:10;;;;;;;;;28.00;21.00;;;;;9.55;67.46;100741.78;5093740;27;45537;-74
2023/02/23 08:50:36;;;;;;;;;25.50;24.00;;;;;9.58;67.59;100736.34;5093942;27;45547;-75
2023/02/23 08:53:01;;;;;;;;;26.50;23.75;;;;;9.63;67.36;100744.72;5094290;27;46467;-74
2023/02/23 08:55:27;;;;;;;;;33.75;25.25;;;;;9.66;67.39;100743.72;5094018;27;46269;-74
2023/02/23 08:57:52;;;;;;;;;29.00;21.25;;;;;9.68;67.30;100745.28;5094153;27;45643;-75
2023/02/23 09:00:18;;;;;;;;;26.25;23.75;;;;;9.76;67.34;100752.63;5093590;27;45627;-74
2023/02/23 09:02:47;;;;;;;;;27.75;22.50;;;;;9.81;67.16;100750.56;5093709;27;46929;-74
2023/02/23 09:05:14;;;;;;;;;27.25;26.00;;;;;9.85;67.00;100745.94;5093352;27;46347;-73
2023/02/23 09:07:43;;;;;;;;;31.25;25.25;;;;;9.90;67.04;100742.09;5093418;27;45458;-75
2023/02/23 09:10:11;;;;;;;;;14.00;12.25;;;;;9.93;66.86;100736.63;5093759;27;45731;-72
2023/02/23 09:12:37;;;;;;;;;30.75;27.25;;;;;10.00;66.63;100748.38;5093594;27;46525;-73
2023/02/23 09:15:02;;;;;;;;;30.50;25.75;;;;;10.05;66.50;100753.31;5093618;27;45693;-75
2023/02/23 09:17:27;;;;;;;;;28.75;22.50;;;;;10.10;66.43;100759.06;5095170;27;45630;-73
2023/02/23 09:19:53;;;;;;;;;5.50;3.25;;;;;10.13;66.39;100755.44;5097249;27;45497;-74
2023/02/23 09:22:18;;;;;;;;;32.75;27.50;;;;;10.16;66.23;100748.22;5096777;27;46613;-74
2023/02/23 09:24:44;;;;;;;;;27.00;23.75;;;;;10.28;65.98;100755.28;5096643;27;45731;-74
2023/02/23 09:27:11;;;;;;;;;24.00;21.00;;;;;10.33;65.96;100755.78;5096625;27;45739;-73
2023/02/23 09:29:40;;;;;;;;;33.25;25.75;;;;;10.38;66.13;100761.56;5097265;27;45681;-73
2023/02/23 09:32:06;;;;;;;;;30.00;25.50;;;;;10.40;65.85;100764.09;5097020;27;45655;-76
2023/02/23 09:34:31;;;;;;;;;28.50;24.25;;;;;10.48;65.66;100759.97;5112181;27;48416;-74
2023/02/23 09:36:56;;;;;;;;;30.00;24.25;;;;;10.54;65.42;100763.97;5096511;27;45837;-75
2023/02/23 09:39:22;;;;;;;;;32.75;27.75;;;;;10.59;65.64;100767.09;5096752;27;45617;-75
2023/02/23 09:41:53;;;;;;;;;29.00;27.25;;;;;10.64;65.18;100770.25;5097384;27;46320;-73
2023/02/23 09:48:05;;;;;;;;;29.50;26.50;;;;;10.69;65.09;100775.19;5097802;27;45959;-73
2023/02/23 09:50:33;;;;;;;;;32.25;28.25;;;;;10.72;64.99;100772.34;5096536;27;45584;-75
2023/02/23 09:53:34;;;;;;;;;31.50;26.00;;;;;10.74;64.85;100779.16;5096277;27;47324;-73
2023/02/23 09:56:01;;;;;;;;;29.00;23.50;;;;;10.69;64.69;100764.72;5096602;27;46822;-76
2023/02/23 09:58:30;;;;;;;;;31.00;27.00;;;;;10.70;64.86;100777.69;5096261;27;45716;-74
2023/02/23 10:01:20;;;;;;;;;34.00;25.50;;;;;10.71;64.48;100779.38;5096313;27;45758;-74
2023/02/23 10:03:58;;;;;;;;;33.25;28.75;;;;;10.69;64.68;100783.06;5096361;27;46535;-74
2023/02/23 10:06:23;;;;;;;;;35.00;28.25;;;;;10.66;64.81;100773.63;5096021;27;46175;-73
2023/02/23 10:09:18;;;;;;;;;38.25;31.00;;;;;10.69;64.58;100776.00;5096099;27;45471;-74
2023/02/23 10:11:46;;;;;;;;;33.50;27.75;;;;;10.69;64.67;100776.00;5096095;27;45820;-74
2023/02/23 10:14:59;;;;;;;;;26.75;25.75;;;;;10.71;64.66;100768.06;5095933;27;46979;-74
2023/02/23 10:17:30;;;;;;;;;30.00;26.00;;;;;10.69;64.63;100773.38;5096135;27;46222;-74
2023/02/23 10:20:08;;;;;;;;;33.75;29.25;;;;;10.71;64.29;100776.75;5095871;27;45630;-72
2023/02/23 10:22:34;;;;;;;;;41.25;28.50;;;;;10.71;64.38;100770.66;5096029;27;45584;-74
2023/02/23 10:25:15;;;;;;;;;30.00;22.75;;;;;10.71;64.04;100776.75;5094672;27;47481;-73
2023/02/23 10:31:17;;;;;;;;;34.50;29.25;;;;;10.73;64.43;100774.03;5095932;27;46136;-74
2023/02/23 10:33:43;;;;;;;;;31.00;26.50;;;;;10.74;64.38;100767.84;5096034;27;46017;-74
2023/02/23 10:36:18;;;;;;;;;28.00;26.00;;;;;10.74;64.34;100762.63;5095946;27;45649;-74
2023/02/23 10:38:43;;;;;;;;;32.50;28.00;;;;;10.82;64.18;100769.00;5111720;27;47498;-74
2023/02/23 10:41:10;;;;;;;;;36.25;30.75;;;;;10.84;64.01;100767.13;5095931;27;45804;-74
2023/02/23 10:47:12;;;;;;;;;33.75;29.25;;;;;10.89;63.85;100772.03;5095602;27;45950;-73
2023/02/23 10:49:49;;;;;;;;;31.25;22.50;;;;;10.84;63.68;100764.50;5096402;27;46396;-75
2023/02/23 10:52:26;;;;;;;;;33.50;29.00;;;;;10.90;63.91;100773.72;5096330;27;45514;-73
2023/02/23 10:54:51;;;;;;;;;29.50;26.75;;;;;10.91;63.77;100773.56;5096327;27;45599;-74
2023/02/23 10:57:25;;;;;;;;;33.75;26.50;;;;;10.92;63.95;100774.41;5096200;27;47523;-72
2023/02/23 11:04:20;;;;;;;;;33.50;29.75;;;;;10.91;63.58;100773.56;5089943;27;45717;-74
2023/02/23 11:06:47;;;;;;;;;37.50;30.75;;;;;10.94;63.65;100768.13;5096944;27;45456;-74
2023/02/23 11:09:29;;;;;;;;;34.75;29.25;;;;;10.96;63.68;100777.69;5096883;27;46756;-74
2023/02/23 11:12:20;;;;;;;;;39.75;29.00;;;;;10.97;63.44;100779.34;5096362;27;46568;-74
2023/02/23 11:18:20;;;;;;;;;29.25;26.00;;;;;10.98;63.52;100760.06;5096384;27;45711;-73
2023/02/23 11:20:47;;;;;;;;;31.00;27.50;;;;;10.98;63.45;100766.13;5094372;27;47728;-72
2023/02/23 11:23:27;;;;;;;;;34.75;29.75;;;;;11.01;63.27;100770.34;5095766;27;46046;-74
2023/02/23 11:26:00;;;;;;;;;31.50;27.00;;;;;10.98;63.36;100771.38;5095448;27;45852;-74
2023/02/23 11:28:43;;;;;;;;;30.00;26.75;;;;;10.98;63.20;100763.50;5095112;27;45610;-73
2023/02/23 11:31:17;;;;;;;;;27.25;23.50;;;;;10.93;63.33;100755.13;5094686;27;47380;-73
2023/02/23 11:33:44;;;;;;;;;32.25;27.75;;;;;10.97;63.33;100759.22;5094778;27;46215;-74
2023/02/23 11:36:15;;;;;;;;;34.25;29.00;;;;;10.99;63.24;100752.09;5094772;27;45504;-73
2023/02/23 11:38:40;;;;;;;;;31.25;27.50;;;;;10.98;63.26;100742.53;5094908;27;45558;-74
2023/02/23 11:41:21;;;;;;;;;33.50;27.00;;;;;11.07;63.20;100749.75;5093586;27;46519;-73
2023/02/23 11:43:55;;;;;;;;;28.75;24.75;;;;;11.11;63.28;100755.63;5094797;27;47144;-73
2023/02/23 11:46:21;;;;;;;;;30.00;26.75;;;;;11.13;63.18;100745.84;5095601;27;45514;-74
2023/02/23 11:48:51;;;;;;;;;29.25;27.50;;;;;11.20;63.10;100755.81;5095700;27;45439;-74
2023/02/23 11:51:35;;;;;;;;;25.75;23.50;;;;;11.20;63.24;100744.47;5094374;27;46838;-74
2023/02/23 11:54:03;;;;;;;;;27.25;25.25;;;;;11.30;63.15;100742.88;5094584;27;47260;-74
2023/02/23 11:56:33;;;;;;;;;24.75;21.25;;;;;11.34;63.05;100737.28;5094924;27;45772;-75
2023/02/23 11:59:09;;;;;;;;;25.50;21.50;;;;;11.40;62.99;100740.41;5094650;27;45607;-74
2023/02/23 12:01:40;;;;;;;;;19.50;17.00;;;;;11.47;63.13;100746.91;5094439;27;45510;-74
2023/02/23 12:04:08;;;;;;;;;29.00;25.75;;;;;11.45;63.06;100740.91;5093772;27;46958;-74
2023/02/23 12:06:37;;;;;;;;;27.50;22.00;;;;;11.55;62.73;100747.19;5094245;27;45616;-74
2023/02/23 12:09:31;;;;;;;;;23.25;20.00;;;;;11.59;62.75;100740.75;5094416;27;45646;-74
2023/02/23 12:12:22;;;;;;;;;26.25;21.00;;;;;11.55;62.67;100720.97;5094435;27;45966;-75
2023/02/23 12:14:55;;;;;;;;;19.75;15.50;;;;;11.60;62.58;100721.44;5094119;27;46770;-79
2023/02/23 12:17:33;;;;;;;;;25.25;24.25;;;;;11.67;62.66;100730.53;5094773;27;45555;-75
2023/02/23 12:20:11;;;;;;;;;23.00;20.00;;;;;11.71;62.55;100737.25;5094222;27;45815;-73
2023/02/23 12:22:47;;;;;;;;;31.25;28.25;;;;;11.73;62.41;100736.19;5094225;27;46606;-74
2023/02/23 12:25:37;;;;;;;;;24.00;21.50;;;;;11.75;62.42;100736.94;5093676;27;47084;-74
2023/02/23 12:28:15;;;;;;;;;27.00;25.00;;;;;11.71;62.56;100724.94;5094541;27;45650;-74
2023/02/23 12:30:53;;;;;;;;;19.50;17.25;;;;;11.78;62.19;100726.19;5093783;27;45820;-73
2023/02/23 12:33:28;;;;;;;;;21.00;19.75;;;;;11.87;62.10;100736.97;5094118;27;46620;-74
2023/02/23 12:36:05;;;;;;;;;21.25;18.00;;;;;11.86;62.21;100728.25;5094394;27;45954;-74
2023/02/23 12:38:57;;;;;;;;;31.25;26.50;;;;;11.91;62.04;100727.91;5094472;27;45873;-75
2023/02/23 12:41:39;;;;;;;;;23.50;20.00;;;;;11.96;61.91;100733.66;5096720;27;45530;-75
2023/02/23 12:47:33;;;;;;;;;23.50;21.75;;;;;12.00;62.00;100730.69;5094306;27;45772;-75
2023/02/23 12:50:12;;;;;;;;;30.50;21.00;;;;;12.04;61.90;100732.13;5093592;27;45485;-75
2023/02/23 12:52:56;;;;;;;;;22.25;20.50;;;;;12.07;61.77;100731.91;5096173;27;45532;-73
2023/02/23 12:55:33;;;;;;;;;18.25;15.00;;;;;12.05;61.62;100720.66;5097256;27;46591;-74
2023/02/23 12:58:14;;;;;;;;;22.75;17.75;;;;;12.18;61.73;100733.72;5097222;27;46696;-73
2023/02/23 13:04:25;;;;;;;;;23.50;20.25;;;;;12.26;61.34;100731.34;5090287;27;45847;-75
2023/02/23 13:06:51;;;;;;;;;26.50;20.25;;;;;12.29;61.09;100735.53;5097258;27;47339;-74
2023/02/23 13:09:28;;;;;;;;;23.00;18.75;;;;;12.33;61.14;100723.84;5097026;27;46465;-75
2023/02/23 13:12:13;;;;;;;;;26.00;23.75;;;;;12.37;61.01;100727.88;5097236;27;45656;-75
2023/02/23 13:14:58;;;;;;;;;23.25;21.50;;;;;12.41;61.12;100721.47;5097395;27;45673;-76
2023/02/23 13:17:32;;;;;;;;;21.00;19.75;;;;;12.44;61.08;100723.84;5097313;27;46580;-76
2023/02/23 13:20:14;;;;;;;;;13.75;11.00;;;;;12.43;60.80;100720.38;5097916;27;47131;-75
2023/02/23 13:22:53;;;;;;;;;23.25;20.25;;;;;12.48;60.75;100720.84;5097357;27;45544;-74
2023/02/23 13:25:37;;;;;;;;;25.50;21.00;;;;;12.44;60.53;100715.97;5097215;27;45889;-73
2023/02/23 13:28:04;;;;;;;;;17.50;16.25;;;;;12.41;60.85;100714.44;5097223;27;46542;-75
2023/02/23 13:30:34;;;;;;;;;20.50;17.75;;;;;12.41;61.13;100714.44;5096373;27;46341;-74
2023/02/23 13:33:13;;;;;;;;;20.75;17.25;;;;;12.36;61.03;100706.03;5096855;27;45671;-74
2023/02/23 13:35:41;;;;;;;;;21.00;20.75;;;;;12.40;60.90;100715.38;5097260;27;45631;-75
2023/02/23 13:38:25;;;;;;;;;23.50;20.00;;;;;12.40;60.83;100707.50;5097385;27;45723;-73
2023/02/23 13:41:00;;;;;;;;;19.00;16.00;;;;;12.39;60.72;100699.72;5096599;27;46371;-73
2023/02/23 13:43:52;;;;;;;;;22.00;18.25;;;;;12.39;60.81;100691.84;5096709;27;45817;-74
2023/02/23 13:46:28;;;;;;;;;21.25;17.50;;;;;12.35;60.76;100693.88;5096989;27;45549;-73
2023/02/23 13:49:00;;;;;;;;;18.50;15.50;;;;;12.37;61.22;100699.00;5095328;27;46601;-73
2023/02/23 13:51:31;;;;;;;;;23.50;20.50;;;;;12.35;61.14;100699.13;5096417;27;46987;-74
2023/02/23 13:54:02;;;;;;;;;20.50;18.00;;;;;12.33;61.37;100695.78;5096604;27;45545;-73